Date,TemperatureHighF,TemperatureAvgF,TemperatureLowF,DewpointHighF,DewpointAvgF,DewpointLowF,HumidityHigh,HumidityAvg,HumidityLow,PressureMaxIn,PressureMinIn,WindSpeedMaxMPH,WindSpeedAvgMPH,GustSpeedMaxMPH,PrecipitationSumIn
2013-1-1,59.9,50.8,41.0,59.6,47.4,38.0,99,88,66,30.33,30.06,14,5,17,0.11
2013-1-2,45.3,40.5,37.0,37.7,30.8,27.3,86,69,52,30.41,30.31,11,2,15,0.00
2013-1-3,46.8,41.2,36.9,32.5,30.4,28.4,80,66,53,30.54,30.38,11,1,15,0.00
2013-1-4,42.6,39.8,36.9,39.0,36.2,31.5,95,87,65,30.59,30.47,12,1,14,0.19
2013-1-5,61.0,45.3,36.7,44.9,39.9,34.0,97,83,54,30.48,30.32,8,0,8,0.00
2013-1-6,62.4,46.2,34.9,37.9,32.2,24.0,97,64,25,30.49,30.37,13,0,14,0.00
2013-1-7,57.0,45.6,34.2,45.2,35.0,26.9,84,67,50,30.42,30.15,4,0,11,0.00
2013-1-8,55.9,51.1,46.9,55.7,50.6,45.4,99,98,84,30.15,29.93,1,0,9,0.69
2013-1-9,66.2,57.5,48.6,58.1,55.2,48.3,99,92,75,30.13,29.97,6,0,8,1.62
2013-1-10,69.3,54.5,44.2,50.3,45.4,41.9,99,75,40,30.16,30.09,1,0,4,0.01
2013-1-11,70.3,59.2,44.2,66.2,54.9,42.2,96,86,67,30.14,29.93,4,0,6,0.00
2013-1-12,74.1,67.9,52.5,67.4,62.8,40.5,97,84,57,29.96,29.78,7,0,16,0.00
2013-1-13,56.8,47.3,39.0,40.5,31.6,28.1,65,55,35,30.26,29.96,11,0,16,0.00
2013-1-14,53.6,43.9,35.1,34.2,28.7,20.7,67,55,45,30.32,30.19,0,0,0,0.00
2013-1-15,49.3,45.1,34.5,34.5,31.9,23.2,78,60,54,30.21,29.90,8,0,11,0.04
2013-1-16,56.8,41.3,30.9,23.9,18.6,13.5,62,43,20,30.15,29.99,1,0,8,0.00
2013-1-17,69.4,52.2,37.2,35.7,30.8,21.7,73,47,24,30.29,30.11,0,0,2,0.00
2013-1-18,43.7,41.8,37.0,34.1,33.5,29.7,78,72,66,30.30,30.27,0,0,0,0.00
2013-1-19,71.6,52.9,42.8,48.3,40.4,34.1,83,64,34,30.30,29.97,0,0,0,0.00
2013-1-20,73.0,55.6,41.2,55.6,47.2,40.4,99,76,40,30.07,29.92,0,0,0,0.00
2013-1-21,76.3,57.8,43.7,56.4,49.1,43.2,99,76,40,30.05,29.94,0,0,0,0.00
2013-1-22,55.6,55.6,55.6,48.8,48.8,48.8,78,78,78,30.00,30.00,0,0,0,0.00
2013-1-23,55.6,55.6,55.6,48.8,48.8,48.8,78,78,78,30.00,30.00,0,0,0,0.00
2013-1-24,55.6,55.6,55.6,48.8,48.8,48.8,78,78,78,30.00,30.00,0,0,0,0.00
2013-1-25,80.8,60.9,55.6,62.3,53.0,48.8,91,76,51,30.00,29.86,0,0,1,0.00
2013-1-26,73.9,62.2,54.7,62.1,57.3,53.9,98,85,61,29.98,29.85,0,0,3,0.00
2013-1-27,77.9,67.7,58.5,64.6,59.4,52.9,98,77,52,29.91,29.77,1,0,11,0.19
2013-1-28,73.0,73.0,73.0,58.4,58.4,58.4,60,60,60,29.82,29.82,0,0,0,0.19
2013-1-29,73.0,73.0,73.0,58.4,58.4,58.4,60,60,60,29.82,29.82,0,0,0,0.19
2013-1-30,73.0,73.0,73.0,58.4,58.4,58.4,60,60,60,29.82,29.82,0,0,0,0.19
2013-2-3,73.2,71.3,69.6,55.9,53.9,50.2,58,54,47,30.14,29.84,0,0,0,0.00
2013-2-4,73.0,71.8,70.5,58.3,55.3,51.8,61,56,50,29.84,29.63,0,0,0,0.00
2013-2-5,73.9,71.8,70.5,58.7,54.2,49.5,60,54,46,29.81,29.69,0,0,0,0.00
2013-2-6,73.0,70.6,62.1,58.8,55.6,51.1,87,60,49,29.82,29.66,0,0,0,0.04
2013-2-7,82.0,67.0,58.1,62.9,56.9,40.1,99,73,36,29.88,29.69,0,0,0,0.01
2013-2-8,75.2,60.3,47.3,48.0,36.6,23.7,78,46,16,30.03,29.88,0,0,0,0.00
2013-2-9,68.5,58.8,49.1,67.4,56.0,36.2,99,91,53,29.90,29.61,0,0,0,0.04
2013-2-10,70.9,65.0,58.1,67.2,43.9,23.3,99,54,17,29.83,29.59,0,0,0,0.05
2013-2-11,62.6,55.6,50.5,50.6,45.3,39.2,99,69,48,29.86,29.77,0,0,0,0.00
2013-2-12,76.8,60.2,50.4,57.3,43.5,21.0,99,64,17,29.87,29.63,0,0,0,0.01
2013-2-13,73.6,53.0,39.9,37.1,31.0,20.1,75,48,14,29.96,29.83,5,0,21,0.27
2013-2-14,73.8,53.4,36.0,40.9,36.2,30.4,89,57,24,29.94,29.81,11,2,12,0.00
2013-2-15,72.9,53.3,40.3,45.0,37.9,21.9,93,60,23,30.18,29.89,17,5,17,0.00
2013-2-16,71.1,51.2,33.6,29.2,24.3,19.8,61,37,16,30.27,30.04,8,3,13,0.00
2013-2-17,73.2,56.3,39.6,53.0,38.6,28.2,74,54,31,30.03,29.81,17,6,21,0.00
2013-2-18,67.1,64.6,60.6,60.7,58.6,53.0,87,81,74,29.81,29.72,17,5,21,0.00
2013-2-19,70.7,64.2,50.4,60.7,39.5,20.6,80,46,16,30.06,29.78,16,6,17,0.00
2013-2-20,68.2,59.6,53.1,65.5,52.1,24.9,97,78,28,29.93,29.48,14,6,19,0.00
2013-2-21,81.1,69.5,54.0,66.5,42.2,19.1,92,48,12,29.67,29.40,15,6,23,0.00
2013-2-22,69.8,56.0,48.4,40.7,33.5,18.8,68,44,23,29.83,29.67,15,6,19,0.00
2013-2-23,78.6,61.4,41.7,42.1,34.9,29.4,64,40,23,29.86,29.69,9,4,12,0.00
2013-2-24,75.2,75.2,75.2,37.0,37.0,37.0,25,25,25,29.69,29.69,4,4,10,0.00
2013-2-25,75.2,70.3,46.8,37.0,35.6,28.8,50,29,25,29.69,29.65,17,5,20,4.46
2013-2-26,69.4,54.0,39.6,29.1,25.2,21.0,61,36,17,29.77,29.66,13,5,16,0.00
2013-2-27,54.1,54.1,54.1,22.6,22.6,22.6,29,29,29,29.70,29.70,2,2,2,0.00
2013-2-28,54.1,53.1,40.8,26.0,22.8,22.6,55,31,29,30.06,29.70,2,2,2,0.02
2013-3-1,73.6,54.4,34.7,32.4,22.1,15.6,65,34,13,30.10,29.92,11,3,17,0.00
2013-3-2,69.6,52.5,39.2,30.8,26.3,20.7,58,39,18,30.24,30.07,14,4,22,0.00
2013-3-3,79.3,58.1,36.1,44.1,32.0,24.7,65,41,15,30.08,29.78,15,5,18,0.00
2013-3-4,89.8,66.7,45.9,54.2,46.1,37.1,94,54,16,29.78,29.55,12,4,14,0.00
2013-3-5,69.1,57.9,46.4,56.0,29.0,12.5,95,40,15,30.17,29.61,29,9,30,0.58
2013-3-6,68.5,51.2,37.9,28.3,17.6,8.7,44,27,15,30.24,30.03,12,4,14,0.00
2013-3-7,75.2,57.6,39.2,55.5,45.5,29.1,86,66,44,30.03,29.90,11,4,17,0.00
2013-3-31,69.8,64.8,62.2,62.3,60.2,59.0,91,85,74,30.24,30.11,11,3,18,0.05
2013-4-1,88.7,73.4,61.0,66.8,62.5,58.9,97,72,38,30.32,30.16,10,4,17,0.00
2013-4-2,80.4,69.7,56.8,66.6,63.6,55.7,99,82,61,30.31,30.08,20,5,29,1.06
2013-4-3,57.2,53.8,49.3,56.9,51.5,45.3,99,92,83,30.39,30.06,20,7,21,0.48
2013-4-4,71.4,58.9,46.4,46.2,44.8,41.6,92,62,39,30.47,30.34,12,6,17,0.00
2013-4-5,78.4,63.5,40.5,50.7,47.1,40.2,99,58,35,30.52,30.33,8,3,10,0.00
2013-4-6,81.9,64.9,51.4,58.5,54.9,47.8,95,73,42,30.33,30.12,17,6,18,0.00
2013-4-7,86.9,70.9,60.6,65.5,61.5,57.6,91,75,44,30.20,30.03,14,6,16,0.00
2013-4-8,76.6,70.2,66.2,67.4,65.1,62.0,94,84,73,30.11,29.95,12,6,17,0.00
2013-4-9,90.7,76.3,69.8,69.8,67.3,65.1,90,76,46,30.00,29.85,14,6,16,0.00
2013-4-10,73.8,60.7,47.3,69.2,53.8,43.1,95,78,59,30.18,29.92,17,9,24,0.24
2013-4-11,74.8,57.8,45.0,44.0,40.1,32.2,92,56,28,30.23,30.06,14,5,17,0.02
2013-4-12,84.6,63.2,43.7,51.4,44.2,37.8,92,57,21,30.26,30.11,11,3,11,0.00
2013-4-13,79.9,66.4,50.2,60.3,52.7,41.1,97,64,37,30.24,30.04,11,4,11,0.00
2013-4-14,91.6,72.1,56.7,67.3,61.5,55.7,98,73,37,30.11,29.90,11,4,14,0.00
2013-4-15,93.2,78.2,68.4,67.4,65.3,61.2,93,68,37,30.09,29.97,14,5,17,0.00
2013-4-16,87.3,76.2,64.4,70.4,66.7,62.7,95,74,51,30.16,30.07,13,5,14,0.00
2013-4-17,80.6,75.3,72.0,72.0,70.7,69.1,97,86,68,30.16,29.94,12,6,15,0.01
2013-4-18,75.2,65.3,54.1,71.4,54.3,36.0,93,70,36,30.33,29.93,16,8,22,0.37
2013-4-19,74.8,58.3,45.3,36.4,28.8,20.2,67,38,14,30.55,30.33,18,6,24,0.06
2013-4-20,77.9,59.3,37.8,48.3,33.8,26.0,82,45,15,30.48,30.25,12,4,15,0.00
2013-4-21,85.8,66.8,50.4,59.3,52.9,46.8,89,64,36,30.40,30.26,12,5,18,0.00
2013-4-22,87.4,71.7,59.0,62.5,59.7,57.2,96,69,39,30.38,30.14,13,5,14,0.00
2013-4-23,80.2,69.7,55.2,66.9,61.5,44.5,90,76,59,30.33,30.13,17,6,17,0.00
2013-4-24,54.9,48.9,46.0,43.3,40.7,37.3,79,73,64,30.42,30.33,23,13,24,0.00
2013-4-25,69.8,61.6,56.3,51.2,44.2,40.2,68,53,40,30.57,30.44,12,5,12,0.00
2013-4-26,81.3,69.2,58.8,69.2,63.6,50.9,99,83,65,30.46,30.30,10,4,10,0.02
2013-4-27,84.4,73.1,65.5,69.0,67.1,65.2,99,83,55,30.36,30.20,12,3,14,1.09
2013-4-28,85.5,72.7,59.2,68.2,62.9,58.9,99,74,46,30.30,30.14,8,3,11,0.01
2013-4-29,87.8,72.0,66.0,68.7,65.6,61.5,97,83,42,30.21,30.04,14,4,16,0.21
2013-4-30,86.4,73.7,65.1,69.4,65.5,63.5,99,78,48,30.12,30.00,8,3,10,0.00
2013-5-1,89.6,77.5,66.0,69.3,66.9,64.8,96,72,47,30.19,30.06,10,4,14,0.00
2013-5-2,76.3,58.1,49.5,69.0,50.0,37.0,94,75,59,30.60,30.14,22,11,24,0.60
2013-5-3,72.7,56.8,45.5,38.2,31.1,21.5,69,42,15,30.60,30.35,21,6,22,0.00
2013-5-4,85.3,63.9,43.5,42.9,36.5,29.6,73,42,15,30.37,30.16,14,4,14,0.00
2013-5-5,85.1,66.7,49.3,48.0,42.8,37.1,70,45,20,30.40,30.25,10,3,13,0.00
2013-5-6,78.4,64.7,48.4,54.1,49.4,44.6,87,60,37,30.42,30.27,8,2,10,0.00
2013-5-7,87.3,70.3,51.3,61.0,53.9,49.1,97,61,29,30.35,30.21,12,3,12,0.00
2013-5-8,86.5,72.8,62.8,65.9,62.8,58.4,93,73,46,30.29,30.15,12,5,14,0.00
2013-5-9,83.3,73.8,62.8,71.9,68.0,58.3,93,82,68,30.25,30.11,13,5,21,0.05
2013-5-10,86.2,71.9,61.2,67.4,63.2,59.1,98,77,45,30.28,30.10,13,5,22,0.19
2013-5-11,83.3,72.4,63.0,61.3,58.4,52.4,89,64,40,30.42,30.27,15,7,19,0.00
2013-5-12,82.2,70.5,59.7,54.9,51.2,47.4,73,52,31,30.51,30.38,11,4,18,0.00
2013-5-13,87.3,72.4,52.5,59.9,53.3,46.2,83,54,30,30.54,30.42,10,3,11,0.00
2013-5-14,87.4,74.1,59.0,66.7,61.6,54.4,90,67,46,30.49,30.28,14,5,20,0.00
2013-5-15,89.2,76.2,70.0,71.0,68.9,66.5,93,79,53,30.37,30.11,16,7,19,0.01
2013-5-16,98.4,80.3,71.1,73.8,70.1,67.4,93,74,40,30.14,29.99,14,6,17,0.00
2013-5-17,99.0,82.7,73.9,73.9,71.7,69.3,91,72,39,30.18,30.07,12,5,14,0.00
2013-5-18,95.7,81.6,71.1,72.4,68.6,65.0,94,68,41,30.20,30.10,16,6,21,0.00
2013-5-19,93.4,81.5,72.0,72.4,69.5,65.5,91,69,48,30.14,30.00,13,6,18,0.00
2013-5-20,94.5,81.4,71.6,71.8,70.1,67.6,93,71,46,30.12,29.98,12,6,17,0.00
2013-5-21,76.1,74.2,72.7,71.4,71.1,70.4,93,90,84,30.10,30.03,5,3,9,0.00
2013-5-22,94.3,79.7,63.0,71.9,64.3,56.0,78,60,46,30.20,30.08,11,4,11,0.00
2013-5-23,94.3,81.9,73.8,72.1,70.9,68.9,92,72,46,30.30,30.14,14,5,14,0.00
2013-5-24,81.1,77.9,74.3,72.8,70.5,68.4,92,79,69,30.38,30.28,6,1,6,0.14
2013-5-25,82.4,78.8,76.1,72.0,69.9,68.2,78,74,70,30.42,30.29,0,0,0,0.00
2013-5-26,82.9,79.5,77.2,73.5,70.5,68.7,75,74,72,30.36,30.25,0,0,0,0.00
2013-5-27,87.1,80.3,77.4,74.9,70.6,68.5,75,72,67,30.32,30.14,0,0,0,0.00
2013-5-28,86.4,80.8,75.9,73.6,71.1,68.8,85,72,65,30.20,30.05,13,1,15,0.07
2013-5-29,86.7,78.2,73.2,72.8,71.6,70.4,93,81,63,30.17,30.00,17,8,19,0.00
2013-5-30,91.8,80.8,74.3,73.5,72.0,71.1,91,76,52,30.13,30.04,13,6,14,0.00
2013-5-31,94.6,82.5,74.5,74.9,73.3,71.2,93,76,47,30.17,30.04,14,6,14,0.00
2013-6-1,97.9,84.5,75.9,74.1,72.8,71.2,90,70,43,30.18,30.07,14,6,17,0.00
2013-6-2,90.1,77.7,65.1,73.8,66.3,59.5,99,72,36,30.33,30.18,14,4,20,0.31
2013-6-3,95.0,79.6,63.1,72.3,65.6,61.1,96,66,36,30.26,30.12,8,2,10,0.00
2013-6-4,94.3,81.7,69.1,73.4,68.1,63.8,98,67,37,30.20,30.10,11,4,12,0.00
2013-6-5,94.8,81.5,67.5,72.1,68.6,65.7,97,68,40,30.17,30.03,11,4,13,0.00
2013-6-6,97.5,82.0,68.7,74.7,68.7,65.0,98,68,36,30.21,30.06,12,3,16,0.00
2013-6-7,82.4,74.2,67.6,68.9,65.8,63.3,93,75,61,30.28,30.16,13,4,14,0.00
2013-6-8,91.9,77.8,61.7,72.2,66.7,58.0,95,70,48,30.20,30.08,10,3,14,0.01
2013-6-9,92.5,80.7,74.1,75.6,72.1,65.5,95,77,51,30.24,30.12,8,3,11,0.06
2013-6-10,96.3,82.6,69.4,74.7,70.9,68.1,96,71,43,30.27,30.19,8,2,9,0.05
2013-6-11,95.4,79.5,71.6,75.2,71.9,67.4,96,80,45,30.33,30.25,12,3,27,0.26
2013-6-12,94.3,79.3,71.6,75.4,73.3,70.1,99,84,49,30.33,30.24,11,3,20,0.22
2013-6-13,91.8,78.4,73.8,79.9,73.8,69.2,97,87,57,30.35,30.22,9,2,21,0.17
2013-6-14,80.8,75.8,73.0,76.6,73.6,71.1,97,93,83,30.28,30.21,6,1,9,0.00
2013-6-15,93.6,83.5,75.4,76.6,73.4,69.6,97,73,46,30.28,30.18,8,2,9,0.01
2013-6-16,97.0,84.0,75.0,74.7,72.9,67.8,95,72,39,30.31,30.19,13,4,13,0.00
2013-6-17,85.8,77.7,76.5,76.6,73.7,72.9,92,88,74,30.26,30.21,10,4,10,0.00
2013-6-20,96.1,84.5,74.1,74.1,70.9,65.4,93,67,43,30.34,30.23,16,6,16,0.00
2013-6-21,97.0,85.0,76.1,74.6,70.2,60.9,94,65,35,30.36,30.26,16,6,16,0.00
2013-6-22,97.9,84.9,74.7,73.5,70.1,64.8,95,65,37,30.32,30.18,11,6,11,0.00
2013-6-23,96.8,84.1,76.1,74.1,69.9,61.5,93,66,35,30.27,30.18,11,6,11,0.00
2013-6-24,98.2,84.8,75.9,74.4,71.4,66.6,92,67,40,30.31,30.19,16,7,16,0.00
2013-6-25,98.1,85.8,76.3,73.9,70.8,65.6,90,64,35,30.29,30.16,13,7,13,0.00
2013-6-26,100.9,87.8,75.9,74.3,71.3,67.1,91,62,35,30.26,30.16,12,6,14,0.00
2013-6-27,102.7,87.2,74.8,74.3,68.6,48.2,90,59,17,30.31,30.20,11,4,12,0.00
2013-6-28,105.1,88.8,75.0,74.3,69.3,62.7,94,58,27,30.29,30.11,9,3,13,0.00
2013-6-29,107.4,92.6,75.9,72.8,66.0,43.9,82,46,12,30.18,30.03,10,3,14,0.00
2013-6-30,90.9,79.8,69.4,73.5,67.6,61.6,98,68,44,30.29,30.09,20,4,20,0.61
2013-7-1,91.9,80.2,71.4,67.9,59.7,53.6,75,51,32,30.29,30.15,13,4,14,0.00
2013-7-2,94.5,80.4,66.4,62.7,56.0,48.1,71,46,24,30.36,30.24,11,3,14,0.00
2013-7-3,98.4,82.5,67.3,65.0,50.6,37.0,67,38,12,30.31,30.18,7,2,13,0.00
2013-7-4,98.6,83.5,65.1,71.3,62.7,54.5,96,55,23,30.28,30.16,7,2,11,0.00
2013-7-5,99.5,85.2,68.9,72.8,65.7,58.5,94,56,29,30.27,30.12,11,3,14,0.00
2013-7-6,98.2,83.5,70.2,74.1,67.9,59.6,94,63,32,30.22,30.10,12,3,14,0.00
2013-7-7,99.5,83.3,72.9,76.5,72.5,67.0,97,73,39,30.26,30.17,12,3,18,0.00
2013-7-8,89.6,79.5,74.3,75.3,73.5,69.1,95,83,53,30.40,30.25,9,3,13,0.00
2013-7-9,98.8,84.2,73.0,76.4,72.2,67.3,99,72,36,30.42,30.30,11,4,14,0.01
2013-7-10,101.1,88.2,73.8,75.1,70.9,65.6,98,60,34,30.39,30.22,10,4,13,0.00
2013-7-11,99.5,85.6,75.2,74.8,70.0,63.3,94,64,31,30.30,30.17,10,4,14,0.00
2013-7-12,101.5,86.7,74.5,75.3,69.5,59.8,95,61,27,30.26,30.17,9,4,11,0.00
2013-7-13,103.3,88.9,71.6,73.0,65.8,44.9,89,51,14,30.27,30.14,8,3,11,0.00
2013-7-14,101.1,84.4,75.4,73.1,68.9,63.5,87,62,33,30.20,30.13,12,5,21,0.00
2013-7-15,84.7,75.7,71.1,75.3,72.8,69.6,98,91,67,30.30,30.15,8,3,10,0.90
2013-7-16,88.9,75.3,70.7,75.7,72.6,70.1,99,92,63,30.39,30.27,8,3,22,0.93
2013-7-17,89.4,77.2,71.4,74.1,71.7,68.6,99,85,53,30.44,30.37,12,4,21,0.00
2013-7-18,94.1,80.5,71.2,74.4,70.6,67.3,97,75,44,30.43,30.29,10,3,10,0.00
2013-7-19,96.8,83.8,71.1,78.2,71.0,66.9,99,69,40,30.35,30.19,6,2,6,0.00
2013-7-20,96.3,84.1,71.8,76.0,70.6,65.4,97,67,37,30.29,30.14,8,3,8,0.00
2013-7-21,96.3,84.7,75.7,77.3,73.6,70.0,95,71,44,30.25,30.16,8,4,8,0.01
2013-7-22,97.2,87.3,77.9,76.1,73.3,67.8,93,66,39,30.28,30.17,11,6,15,0.00
2013-7-23,99.0,86.4,77.5,75.6,71.8,64.2,88,65,33,30.30,30.16,14,7,15,0.00
2013-7-24,101.5,86.7,76.3,75.9,72.2,66.6,93,66,36,30.29,30.15,12,4,13,0.00
2013-7-25,100.6,86.8,74.1,75.1,71.6,65.2,96,64,33,30.32,30.23,10,4,17,0.00
2013-7-26,96.4,81.5,74.8,75.8,73.5,70.8,96,78,48,30.32,30.26,8,3,11,0.00
2013-7-27,92.7,83.1,74.7,77.8,73.6,69.8,98,75,50,30.28,30.15,10,4,10,0.14
2013-7-28,98.4,84.8,73.8,75.5,71.5,68.1,88,67,39,30.23,30.13,11,4,11,0.00
2013-7-29,99.7,86.8,77.5,75.5,71.4,64.3,89,64,32,30.32,30.21,12,7,12,0.00
2013-7-30,101.1,87.2,77.2,75.2,71.4,65.7,89,64,32,30.37,30.25,14,7,14,0.00
2013-7-31,105.6,87.6,74.5,73.7,67.4,48.5,95,59,15,30.38,30.21,8,4,8,0.00
2013-8-1,102.7,89.8,75.9,75.6,70.3,65.0,94,57,32,30.32,30.18,11,4,11,0.00
2013-8-2,101.5,87.8,74.8,75.4,69.1,65.1,90,57,33,30.28,30.15,10,4,11,0.00
2013-8-3,101.3,88.0,76.3,75.1,70.9,65.7,93,61,34,30.31,30.20,11,5,14,0.00
2013-8-4,100.4,87.6,77.9,76.2,72.1,68.8,91,63,37,30.34,30.20,11,6,11,0.00
2013-8-5,102.4,89.5,75.7,76.4,70.4,64.8,93,57,32,30.32,30.15,11,6,18,0.00
2013-8-6,103.3,88.6,75.9,75.7,70.8,62.8,94,60,28,30.25,30.09,14,6,14,0.00
2013-8-7,104.0,88.8,77.2,75.6,71.1,58.8,91,61,24,30.23,30.08,14,5,14,0.00
2013-8-8,102.6,86.0,77.2,74.1,72.7,69.8,87,67,35,30.20,30.11,9,5,12,0.00
2013-8-9,103.1,88.1,74.5,74.5,67.9,46.1,95,58,15,30.25,30.14,8,3,8,0.00
2013-8-10,103.1,87.0,74.1,77.4,72.2,69.2,89,65,35,30.34,30.20,11,3,11,0.11
2013-8-11,100.6,85.6,74.7,78.8,72.9,68.1,97,69,36,30.36,30.24,9,3,9,0.00
2013-8-12,98.2,86.1,73.6,74.1,70.9,66.4,96,64,36,30.36,30.22,11,4,11,0.00
2013-8-13,101.8,88.4,76.3,75.4,71.1,65.0,93,61,33,30.33,30.17,11,4,11,0.00
2013-8-14,104.7,88.2,76.1,75.1,69.6,56.9,92,58,21,30.29,30.14,13,5,13,0.00
2013-8-15,88.5,79.2,75.0,75.9,71.2,70.0,89,77,62,30.28,30.22,5,2,8,0.00
2013-8-20,95.9,82.4,69.1,74.1,68.5,62.4,96,66,34,30.30,30.22,10,3,10,0.00
2013-8-21,97.9,82.4,73.4,74.2,70.8,66.7,92,71,38,30.35,30.25,10,3,10,0.00
2013-8-22,98.2,84.8,71.8,76.1,70.9,65.3,97,67,37,30.36,30.19,10,3,10,0.00
2013-8-23,99.7,87.0,72.9,76.1,69.8,63.6,96,60,33,30.31,30.17,8,3,8,0.00
2013-8-24,101.3,88.1,74.5,73.3,69.7,64.5,87,58,32,30.33,30.19,11,3,11,0.00
2013-8-25,97.5,85.3,72.5,73.0,69.6,65.4,86,62,36,30.36,30.26,14,5,14,0.00
2013-8-26,92.3,78.1,73.2,74.8,73.0,69.2,99,85,48,30.39,30.30,13,4,13,0.07
2013-8-27,92.7,80.5,73.2,75.0,72.3,68.7,98,79,48,30.39,30.30,11,4,14,0.01
2013-8-28,98.1,84.3,73.2,79.0,71.1,65.2,99,69,37,30.40,30.27,14,3,14,0.00
2013-8-29,80.2,75.6,72.9,73.5,72.4,71.0,97,90,74,30.35,30.31,4,1,4,0.00
2013-8-30,102.6,89.1,76.3,72.7,68.6,64.8,85,54,33,30.32,30.16,10,3,10,0.00
2013-8-31,102.4,88.4,74.5,73.4,69.6,65.8,89,57,34,30.24,30.10,9,4,9,0.00
2013-9-1,100.8,87.4,73.4,75.6,69.6,64.0,96,60,32,30.21,30.09,10,3,10,0.00
2013-9-2,99.9,83.9,75.6,77.2,70.8,63.6,95,67,32,30.26,30.10,6,3,12,0.00
2013-9-3,101.8,87.7,71.4,72.8,67.5,61.1,89,55,28,30.29,30.15,5,2,12,0.00
2013-9-4,101.3,87.2,78.1,72.2,70.2,66.3,80,59,35,30.33,30.21,8,2,14,0.00
2013-9-5,99.1,83.8,71.4,75.6,70.9,67.8,93,68,37,30.38,30.26,6,1,25,0.00
2013-9-6,98.4,85.4,72.5,75.5,71.0,66.0,95,66,36,30.37,30.22,5,1,17,0.00
2013-9-7,98.2,84.5,73.9,75.5,72.1,68.1,95,70,38,30.31,30.18,6,1,14,0.00
2013-9-8,92.8,79.8,72.9,76.4,72.7,68.1,99,81,48,30.26,30.17,10,1,14,0.20
2013-9-9,95.0,77.6,70.7,74.6,71.4,67.5,99,83,43,30.26,30.17,7,2,19,0.09
2013-9-10,92.8,78.2,72.0,75.3,72.2,69.9,99,84,48,30.32,30.22,8,2,14,0.06
2013-9-11,95.9,81.1,71.6,76.7,71.1,62.9,99,76,37,30.37,30.25,8,2,14,0.11
2013-9-12,96.4,81.0,70.2,75.0,68.9,61.5,97,71,33,30.34,30.18,5,1,13,0.00
2013-9-13,98.4,84.7,72.0,73.1,65.5,57.7,92,57,27,30.25,30.09,8,2,14,0.00
2013-9-14,97.0,82.4,68.2,73.9,67.6,64.7,96,65,35,30.22,30.12,5,2,18,0.22
2013-9-15,94.8,81.0,71.1,75.5,71.6,68.6,98,76,45,30.29,30.17,7,2,13,0.00
2013-9-16,86.4,76.5,71.8,77.2,72.8,68.6,99,89,65,30.32,30.23,9,2,17,0.40
2013-9-17,90.0,78.1,71.8,77.3,72.8,70.0,99,85,52,30.33,30.21,8,1,21,0.11
2013-9-18,92.7,79.6,72.3,76.9,72.7,68.6,99,82,47,30.30,30.17,7,1,14,0.11
2013-9-19,92.8,80.4,73.6,77.4,74.3,71.5,99,83,51,30.22,30.09,5,2,11,0.05
2013-9-20,82.8,75.9,70.7,78.5,74.1,69.0,99,94,84,30.14,30.04,8,2,21,0.52
2013-9-21,85.8,75.4,68.9,69.3,62.3,51.1,94,67,35,30.19,30.09,11,4,18,0.00
2013-9-22,87.8,73.4,61.9,55.6,50.6,43.5,69,47,24,30.18,30.05,5,2,13,0.00
2013-9-23,92.1,73.6,55.8,60.1,52.6,45.8,87,54,22,30.12,30.03,4,1,9,0.00
2013-9-24,97.7,80.2,63.7,66.3,59.8,56.1,80,54,27,30.21,30.09,6,1,19,0.00
2013-9-25,97.9,82.3,66.9,67.1,61.9,58.1,84,53,32,30.18,30.06,4,1,10,0.00
2013-9-26,92.8,81.0,69.8,74.5,67.8,57.2,97,67,40,30.18,30.08,6,3,15,0.00
2013-9-27,92.3,81.4,74.7,78.9,74.7,72.4,96,81,55,30.19,30.09,10,3,15,0.01
2013-9-28,91.9,81.0,75.6,77.1,75.7,71.9,96,84,55,30.25,30.14,8,3,15,0.09
2013-9-29,80.2,72.1,66.2,74.6,68.3,65.8,99,89,68,30.31,30.21,8,2,20,2.56
2013-9-30,89.1,70.7,59.5,70.3,63.2,57.7,99,82,36,30.22,30.15,3,0,8,0.00
2013-10-10,88.3,74.5,61.3,68.9,64.5,60.5,98,74,45,30.29,30.14,7,2,11,0.00
2013-10-11,92.1,79.3,71.2,74.8,72.1,66.8,95,80,51,30.20,30.09,8,3,10,0.00
2013-10-12,93.2,81.8,75.6,76.2,73.9,69.6,95,79,48,30.27,30.14,5,2,8,0.01
2013-10-13,77.5,72.6,65.5,75.4,71.4,65.2,99,96,93,30.43,30.25,8,2,9,0.84
2013-10-14,86.5,77.1,71.6,75.4,71.7,70.0,97,85,60,30.33,30.18,5,2,9,0.01
2013-10-15,86.4,76.5,64.0,72.3,69.5,59.8,95,80,54,30.25,30.14,11,2,14,0.00
2013-10-16,63.5,59.0,54.5,59.6,57.2,53.7,99,94,87,30.33,30.18,7,3,12,0.63
2013-10-17,60.8,56.4,52.9,58.6,53.5,48.9,96,90,74,30.35,30.30,4,1,10,0.00
2013-10-18,74.5,65.6,55.9,66.4,62.0,52.7,99,88,73,30.25,30.14,4,1,8,0.00
2013-10-19,71.1,59.4,47.5,65.2,46.5,36.7,99,67,30,30.44,30.22,9,3,21,0.01
2013-10-20,77.5,59.3,43.7,53.7,46.9,42.5,97,68,33,30.34,30.18,6,1,11,0.00
2013-10-21,82.8,69.6,58.6,68.7,62.8,55.1,98,80,58,30.31,30.16,8,1,14,0.00
2013-10-22,78.4,63.8,51.8,56.3,46.0,33.4,86,58,21,30.42,30.30,9,3,16,0.00
2013-10-23,84.2,65.7,50.5,48.0,43.7,37.2,79,50,20,30.44,30.35,4,1,11,0.00
2013-10-24,83.8,66.9,52.9,54.4,49.8,44.8,83,58,28,30.49,30.36,4,1,11,0.00
2013-10-25,81.7,67.1,52.9,63.8,58.4,52.3,99,76,46,30.56,30.45,7,1,13,0.00
2013-10-26,83.3,71.4,63.7,67.1,64.0,61.8,99,80,50,30.48,30.33,8,2,14,0.00
2013-10-27,84.2,71.0,63.9,69.7,66.4,63.0,99,86,60,30.36,30.26,5,2,11,0.00
2013-10-28,84.6,74.6,67.3,70.0,67.4,64.9,99,80,54,30.34,30.24,8,3,14,0.00
2013-10-29,86.7,76.3,70.9,72.4,69.3,67.1,96,80,54,30.35,30.23,8,3,17,0.00
2013-10-30,84.0,77.4,72.9,75.3,73.5,70.4,99,88,71,30.26,30.05,6,3,13,0.44
2013-10-31,85.5,73.0,54.3,74.4,58.3,38.5,99,68,20,30.15,30.03,5,2,18,0.11
2013-11-1,88.2,68.2,50.0,60.6,46.7,34.0,86,51,18,30.33,30.11,9,2,16,0.00
2013-11-2,75.6,63.1,48.2,45.1,39.1,30.5,75,45,20,30.56,30.32,8,3,17,0.00
2013-11-3,74.8,58.7,43.2,54.8,41.3,31.0,86,58,21,30.45,30.29,6,2,11,0.00
2013-11-4,71.2,64.4,59.2,64.7,59.3,54.8,99,84,68,30.32,30.22,5,1,8,0.02
2013-11-5,80.2,71.6,64.2,70.3,67.0,63.4,99,87,63,30.27,30.16,5,2,12,0.00
2013-11-6,81.9,66.2,54.7,72.1,59.3,41.9,98,79,61,30.56,30.21,11,3,20,0.32
2013-11-7,64.2,55.0,47.3,41.8,37.5,27.9,69,54,26,30.69,30.54,11,4,17,0.00
2013-11-8,66.0,57.3,48.9,49.5,41.7,32.0,78,58,31,30.61,30.42,6,1,11,0.00
2013-11-9,72.5,61.8,53.6,60.2,54.6,46.4,96,78,59,30.44,30.36,5,1,8,0.13
2013-11-10,68.0,63.2,61.2,60.2,58.5,56.5,94,85,71,30.55,30.40,5,1,8,0.00
2013-11-11,81.9,65.3,55.4,57.6,55.1,52.5,98,73,41,30.52,30.41,3,0,6,0.00
2013-11-12,65.8,56.3,44.4,55.6,47.9,25.4,90,74,46,30.85,30.48,11,4,23,0.04
2013-11-13,61.3,44.3,34.2,30.2,25.9,22.6,74,51,23,30.86,30.62,8,3,14,0.00
2013-11-14,65.5,48.5,30.9,48.3,33.9,25.8,83,61,27,30.62,30.30,5,1,10,0.00
2013-11-15,81.0,64.4,48.6,60.6,54.7,48.3,99,73,43,30.30,30.13,6,1,13,0.00
2013-11-16,73.8,65.5,63.0,67.0,64.5,60.9,99,96,78,30.17,30.13,6,3,14,0.00
2013-11-26,65.5,53.7,39.4,55.5,43.3,23.8,85,69,46,30.85,30.52,11,5,17,0.04
2013-11-27,61.9,43.8,32.4,29.7,26.2,22.5,80,54,23,30.85,30.57,8,2,12,0.00
2013-11-28,65.1,52.0,30.9,50.5,37.3,25.4,84,61,26,30.55,30.26,4,1,7,0.00
2013-11-29,80.6,65.8,48.6,64.3,56.6,48.3,99,75,43,30.27,30.13,6,2,9,0.00
2013-11-30,72.7,63.9,52.0,66.5,58.1,48.2,99,82,63,30.59,30.13,6,2,8,1.35
2013-12-1,72.1,62.2,56.7,60.6,58.1,55.4,97,87,65,30.44,30.24,4,1,8,0.00
2013-12-2,81.5,68.8,58.6,61.6,57.3,54.7,95,71,40,30.21,29.97,5,2,8,0.00
2013-12-3,81.5,67.4,57.9,61.6,53.1,45.4,95,63,34,30.17,29.90,5,1,8,0.00
2013-12-4,77.4,63.3,52.7,67.2,60.2,52.2,99,90,65,30.06,29.93,4,1,8,0.00
2013-12-5,67.3,48.6,33.3,67.0,43.6,26.6,99,83,65,30.29,30.05,14,5,24,0.01
2013-12-6,42.3,33.7,29.1,33.5,28.4,21.9,97,81,65,30.63,30.25,11,5,21,0.06
2013-12-7,33.4,29.7,26.4,26.1,21.2,15.7,89,71,63,30.65,30.50,11,4,19,0.01
2013-12-8,52.9,39.2,28.6,41.4,33.8,25.8,92,81,64,30.49,30.26,4,1,8,0.00
2013-12-9,42.6,39.9,34.3,41.6,39.2,30.9,99,97,87,30.59,30.29,9,4,45,0.05
2013-12-10,50.4,37.4,28.6,31.1,24.5,16.8,90,64,26,30.72,30.56,7,2,19,0.00
2013-12-11,65.1,45.4,28.6,34.4,28.8,23.5,85,57,21,30.76,30.53,4,1,11,0.00
2013-12-12,53.2,44.3,35.4,35.9,32.8,27.7,76,64,48,30.82,30.55,7,2,12,0.00
2013-12-13,50.2,47.4,45.0,49.9,42.4,34.4,99,84,65,30.55,30.14,4,1,9,0.02
2013-12-14,59.2,49.5,42.4,48.7,39.8,30.7,99,72,47,30.57,30.15,12,4,21,0.01
2013-12-15,65.8,47.3,34.0,34.1,28.6,24.9,75,52,23,30.64,30.51,4,1,9,0.00
2013-12-16,70.0,50.9,32.9,33.4,30.2,27.7,84,50,21,30.56,30.44,4,1,11,0.00
2013-12-17,74.3,52.8,36.1,46.9,37.6,29.6,98,62,21,30.58,30.47,6,1,8,0.00
2013-12-18,48.7,46.5,43.9,48.5,43.9,37.1,99,91,76,30.53,30.49,2,1,4,0.00
2013-12-19,59.5,50.5,43.7,49.9,41.8,31.2,99,75,47,30.55,30.18,10,4,16,0.01
2013-12-20,66.0,47.8,34.0,33.7,28.7,25.3,72,51,23,30.66,30.53,4,1,7,0.00
2013-12-21,72.7,49.5,32.9,41.1,34.0,26.5,84,59,23,30.59,29.93,6,1,14,0.46
2013-12-22,62.4,50.0,40.1,44.1,38.3,30.4,88,65,46,30.61,30.11,8,2,15,0.00
2013-12-23,62.4,44.3,32.5,30.6,26.2,19.3,80,55,21,30.78,30.60,4,1,9,0.00
2013-12-24,62.4,44.7,28.8,42.3,27.6,20.0,92,58,21,30.78,30.53,6,1,12,0.00
2013-12-25,57.9,49.0,38.8,49.0,44.9,38.6,99,87,70,30.64,30.48,6,1,12,0.00
2013-12-26,52.5,47.6,43.3,46.3,40.5,36.5,95,77,65,30.68,30.58,6,2,13,0.01
2013-12-27,56.3,48.4,43.3,48.9,45.5,42.8,99,90,65,30.69,30.58,3,1,8,0.28
2013-12-28,59.5,50.1,41.9,48.8,44.9,41.6,99,83,57,30.58,30.30,6,1,8,0.01
2013-12-29,67.5,50.3,36.1,52.3,44.4,30.9,99,82,55,30.51,30.24,10,2,18,0.01
2013-12-30,44.1,38.4,35.1,31.8,27.9,22.9,81,66,52,30.65,30.46,10,3,15,0.00
2013-12-31,56.1,42.5,35.2,32.1,29.4,24.3,83,62,31,30.71,30.51,4,1,8,0.00
2014-1-1,59.0,49.4,37.4,50.9,41.3,31.4,92,74,62,30.50,30.30,7,1,10,0.00
2014-1-2,53.8,45.0,32.0,49.9,29.4,22.2,97,57,29,30.71,30.36,12,4,24,0.14